Time;durP1;ratioP1;P1;durP2;ratioP2;P2;SDS_P1;SDS_P2;PMS_P1;PMS_P2;Temp;Humidity;BMP_temperature;BMP_pressure;BME280_temperature;BME280_humidity;BME280_pressure;Samples;Min_cycle;Max_cycle;Signal;HPM_P1;HPM_P2
2020/12/04 00:00:13;;;;;;;35.73;14.23;;;2.40;99.90;;;;;;5073861;28;20183;-82
2020/12/04 00:02:39;;;;;;;33.97;14.33;;;2.40;99.90;;;;;;5089203;28;20199;-80
2020/12/04 00:05:05;;;;;;;33.33;14.17;;;2.30;99.90;;;;;;5074124;28;20178;-80
2020/12/04 00:07:31;;;;;;;31.57;12.97;;;2.30;99.90;;;;;;5089177;28;20186;-81
2020/12/04 00:09:56;;;;;;;32.10;12.73;;;2.30;99.90;;;;;;5089482;28;20210;-82
2020/12/04 00:12:22;;;;;;;28.20;12.67;;;2.30;99.90;;;;;;5089218;28;20226;-83
2020/12/04 00:14:48;;;;;;;27.73;12.23;;;2.30;99.90;;;;;;5072488;28;20667;-81
2020/12/04 00:17:13;;;;;;;31.47;12.60;;;2.40;99.90;;;;;;5088635;28;20175;-81
2020/12/04 00:19:39;;;;;;;35.17;14.23;;;2.30;99.90;;;;;;5089000;28;20183;-81
2020/12/04 00:22:05;;;;;;;29.83;13.87;;;2.30;99.90;;;;;;5089453;28;20749;-82
2020/12/04 00:24:31;;;;;;;30.40;12.00;;;2.30;99.90;;;;;;5089451;28;20721;-82
2020/12/04 00:26:57;;;;;;;29.53;12.10;;;2.30;99.90;;;;;;5088601;28;20210;-80
2020/12/04 00:29:24;;;;;;;32.30;13.67;;;2.30;99.90;;;;;;5088985;28;20264;-81
2020/12/04 00:31:50;;;;;;;29.57;13.13;;;2.40;99.90;;;;;;5088599;28;20563;-82
2020/12/04 00:34:15;;;;;;;28.57;13.37;;;2.30;99.90;;;;;;5073739;28;20224;-79
2020/12/04 00:36:45;;;;;;;25.30;12.03;;;2.30;99.90;;;;;;5089080;28;20175;-82
2020/12/04 00:39:10;;;;;;;29.10;12.33;;;2.40;99.90;;;;;;5073811;28;20645;-81
2020/12/04 00:41:36;;;;;;;29.47;12.23;;;2.30;99.90;;;;;;5071904;28;20298;-82
2020/12/04 00:44:01;;;;;;;32.27;13.20;;;2.30;99.90;;;;;;5089130;28;20190;-82
2020/12/04 00:46:27;;;;;;;30.90;12.80;;;2.30;99.90;;;;;;5088473;28;20304;-80
2020/12/04 00:48:52;;;;;;;27.93;12.97;;;2.30;99.90;;;;;;5071871;28;20707;-80
2020/12/04 00:51:18;;;;;;;29.37;12.13;;;2.30;99.90;;;;;;5072462;28;20195;-80
2020/12/04 00:53:43;;;;;;;27.50;12.23;;;2.30;99.90;;;;;;5077117;28;20209;-80
2020/12/04 00:56:09;;;;;;;26.17;11.50;;;2.40;99.90;;;;;;5092301;28;20171;-80
2020/12/04 00:58:35;;;;;;;29.60;12.67;;;2.40;99.90;;;;;;5092780;28;20261;-83
2020/12/04 01:01:02;;;;;;;29.77;12.90;;;2.40;99.90;;;;;;5092458;28;20256;-82
2020/12/04 01:03:27;;;;;;;30.07;12.80;;;2.40;99.90;;;;;;5092778;28;20187;-81
2020/12/04 01:05:53;;;;;;;26.33;11.57;;;2.40;99.90;;;;;;5092614;28;20265;-81
2020/12/04 01:08:20;;;;;;;24.47;11.00;;;2.40;99.90;;;;;;5075445;28;20260;-81
2020/12/04 01:10:46;;;;;;;29.47;12.33;;;2.50;99.90;;;;;;5092261;28;20233;-82
2020/12/04 01:13:12;;;;;;;26.57;11.43;;;2.50;99.90;;;;;;5092458;28;20178;-81
2020/12/04 01:15:37;;;;;;;26.83;11.30;;;2.50;99.90;;;;;;5092161;28;20197;-82
2020/12/04 01:18:03;;;;;;;24.47;10.53;;;2.50;99.90;;;;;;5076686;28;20178;-79
2020/12/04 01:20:29;;;;;;;28.47;12.37;;;2.50;99.90;;;;;;5092301;28;20774;-82
2020/12/04 01:22:54;;;;;;;25.37;11.07;;;2.50;99.90;;;;;;5076718;28;20199;-81
2020/12/04 01:25:20;;;;;;;26.07;11.27;;;2.50;99.90;;;;;;5092044;28;20178;-83
2020/12/04 01:27:45;;;;;;;25.60;10.97;;;2.60;99.90;;;;;;5091937;28;20175;-82
2020/12/04 01:30:11;;;;;;;25.53;10.80;;;2.50;99.90;;;;;;5092048;28;20202;-80
2020/12/04 01:32:36;;;;;;;24.33;10.37;;;2.50;99.90;;;;;;5076457;28;20207;-79
2020/12/04 01:35:02;;;;;;;25.17;11.20;;;2.60;99.90;;;;;;5091991;28;20171;-80
2020/12/04 01:37:28;;;;;;;21.63;9.87;;;2.60;99.90;;;;;;5092467;28;20167;-79
2020/12/04 01:39:54;;;;;;;23.10;10.43;;;2.60;99.90;;;;;;5076728;28;20175;-81
2020/12/04 01:42:20;;;;;;;19.90;9.57;;;2.60;99.90;;;;;;5091811;28;20218;-81
2020/12/04 01:44:46;;;;;;;24.30;10.63;;;2.60;99.90;;;;;;5076659;28;20186;-82
2020/12/04 01:47:11;;;;;;;21.87;10.13;;;2.60;99.90;;;;;;5092037;28;20706;-81
2020/12/04 01:49:37;;;;;;;24.90;10.83;;;2.60;99.90;;;;;;5092122;28;20285;-80
2020/12/04 01:52:03;;;;;;;23.03;10.43;;;2.60;99.90;;;;;;5074589;28;20668;-80
2020/12/04 01:54:32;;;;;;;23.33;10.30;;;2.60;99.90;;;;;;5091611;28;20653;-83
2020/12/04 01:56:58;;;;;;;29.17;10.77;;;2.60;99.90;;;;;;5091376;28;20182;-82
2020/12/04 01:59:24;;;;;;;24.60;10.93;;;2.60;99.90;;;;;;5091637;28;20547;-82
2020/12/04 02:01:59;;;;;;;28.07;12.07;;;2.60;99.90;;;;;;5091034;28;20199;-83
2020/12/04 02:04:24;;;;;;;20.97;9.20;;;2.60;99.90;;;;;;5091940;28;20680;-81
2020/12/04 02:06:55;;;;;;;24.43;10.70;;;2.60;99.90;;;;;;5091279;28;20267;-81
2020/12/04 02:09:25;;;;;;;26.27;10.10;;;2.60;99.90;;;;;;5075941;28;20217;-83
2020/12/04 02:11:54;;;;;;;26.13;11.50;;;2.70;99.90;;;;;;5074620;28;20236;-81
2020/12/04 02:14:19;;;;;;;24.20;11.07;;;2.60;99.90;;;;;;5076112;28;20185;-84
2020/12/04 02:16:46;;;;;;;28.23;11.83;;;2.60;99.90;;;;;;5090795;28;20262;-81
2020/12/04 02:19:12;;;;;;;24.37;10.73;;;2.50;99.90;;;;;;5090967;28;20182;-81
2020/12/04 02:21:38;;;;;;;23.57;10.70;;;2.50;99.90;;;;;;5091156;28;20286;-81
2020/12/04 02:24:05;;;;;;;26.03;11.00;;;2.60;99.90;;;;;;5074124;28;20225;-83
2020/12/04 02:26:30;;;;;;;24.47;11.27;;;2.60;99.90;;;;;;5091127;28;20231;-81
2020/12/04 02:28:56;;;;;;;24.40;9.73;;;2.60;99.90;;;;;;5074100;28;20203;-82
2020/12/04 02:31:22;;;;;;;27.30;12.23;;;2.60;99.90;;;;;;5074969;28;20270;-79
2020/12/04 02:33:48;;;;;;;27.10;11.40;;;2.60;99.90;;;;;;5090764;28;20174;-81
2020/12/04 02:36:15;;;;;;;26.37;11.03;;;2.60;99.90;;;;;;5075171;28;20167;-81
2020/12/04 02:38:41;;;;;;;26.23;11.23;;;2.60;99.90;;;;;;5090940;28;20679;-83
2020/12/04 02:41:08;;;;;;;20.03;9.73;;;2.60;99.90;;;;;;5075122;28;20183;-82
2020/12/04 02:43:34;;;;;;;26.07;12.17;;;2.60;99.90;;;;;;5090824;28;20186;-82
2020/12/04 02:46:00;;;;;;;26.53;11.03;;;2.50;99.90;;;;;;5090719;28;20174;-81
2020/12/04 02:48:26;;;;;;;26.17;11.77;;;2.50;99.90;;;;;;5074080;28;20177;-80
2020/12/04 02:50:51;;;;;;;23.73;10.40;;;2.40;99.90;;;;;;5090585;28;20206;-80
2020/12/04 02:53:17;;;;;;;23.77;10.37;;;2.40;99.90;;;;;;5073910;28;20227;-79
2020/12/04 02:55:42;;;;;;;22.23;10.47;;;2.40;99.90;;;;;;5090207;28;20269;-81
2020/12/04 02:58:08;;;;;;;24.63;10.17;;;2.40;99.90;;;;;;5074794;28;20163;-82
2020/12/04 03:00:33;;;;;;;24.87;10.07;;;2.40;99.90;;;;;;5090278;28;20186;-80
2020/12/04 03:02:59;;;;;;;20.70;9.57;;;2.50;99.90;;;;;;5090591;28;20572;-81
2020/12/04 03:05:24;;;;;;;23.03;10.73;;;2.50;99.90;;;;;;5089986;28;20175;-84
2020/12/04 03:07:50;;;;;;;22.10;9.80;;;2.50;99.90;;;;;;5090512;28;20532;-82
2020/12/04 03:10:15;;;;;;;22.63;10.20;;;2.50;99.90;;;;;;5090157;28;20618;-80
2020/12/04 03:12:41;;;;;;;20.70;8.43;;;2.50;99.90;;;;;;5090240;28;20706;-83
2020/12/04 03:15:08;;;;;;;23.23;9.60;;;2.50;99.90;;;;;;5072859;28;20173;-82
2020/12/04 03:17:34;;;;;;;21.77;9.17;;;2.50;99.90;;;;;;5073424;28;20198;-80
2020/12/04 03:20:00;;;;;;;21.10;8.67;;;2.50;99.90;;;;;;5090007;28;20182;-81
2020/12/04 03:22:25;;;;;;;22.20;9.13;;;2.60;99.90;;;;;;5089997;28;20199;-81
2020/12/04 03:24:52;;;;;;;19.13;8.07;;;2.50;99.90;;;;;;5090073;28;20175;-84
2020/12/04 03:27:17;;;;;;;18.90;8.23;;;2.50;99.90;;;;;;5090119;28;20179;-81
2020/12/04 03:29:43;;;;;;;17.70;8.17;;;2.50;99.90;;;;;;5089860;28;20201;-82
2020/12/04 03:32:08;;;;;;;22.60;9.13;;;2.50;99.90;;;;;;5073541;28;20270;-83
2020/12/04 03:34:34;;;;;;;20.87;9.63;;;2.50;99.90;;;;;;5090124;28;20194;-82
2020/12/04 03:37:00;;;;;;;19.20;8.50;;;2.50;99.90;;;;;;5074323;28;20226;-84
2020/12/04 03:39:26;;;;;;;22.33;9.87;;;2.40;99.90;;;;;;5089733;28;20228;-81
2020/12/04 03:41:51;;;;;;;19.63;8.60;;;2.40;99.90;;;;;;5089787;28;20563;-82
2020/12/04 03:44:17;;;;;;;19.53;9.40;;;2.50;99.90;;;;;;5074344;28;20182;-81
2020/12/04 03:46:47;;;;;;;21.20;8.87;;;2.50;99.90;;;;;;5089485;28;20262;-81
2020/12/04 03:49:16;;;;;;;19.43;8.97;;;2.40;99.90;;;;;;5089551;28;20298;-79
2020/12/04 03:51:42;;;;;;;21.07;8.57;;;2.40;99.90;;;;;;5074195;28;20191;-80
2020/12/04 03:54:10;;;;;;;22.30;9.70;;;2.40;99.90;;;;;;5089970;28;20175;-81
2020/12/04 03:56:36;;;;;;;23.80;9.83;;;2.30;99.90;;;;;;5089691;28;20190;-81
2020/12/04 03:59:01;;;;;;;18.57;8.57;;;2.30;99.90;;;;;;5089828;28;20179;-83
2020/12/04 04:01:27;;;;;;;19.60;8.63;;;2.30;99.90;;;;;;5089191;28;20207;-83
2020/12/04 04:03:52;;;;;;;19.47;9.20;;;2.30;99.90;;;;;;5089786;28;20328;-82
2020/12/04 04:06:18;;;;;;;23.50;10.23;;;2.30;99.90;;;;;;5073993;28;20236;-82
2020/12/04 04:08:44;;;;;;;20.80;9.30;;;2.30;99.90;;;;;;5089411;28;20285;-80
2020/12/04 04:11:09;;;;;;;18.63;9.27;;;2.30;99.90;;;;;;5088895;28;20198;-78
2020/12/04 04:13:36;;;;;;;22.37;10.20;;;2.30;99.90;;;;;;5074332;28;20178;-82
2020/12/04 04:16:01;;;;;;;21.87;9.20;;;2.30;99.90;;;;;;5089244;28;20170;-83
2020/12/04 04:18:27;;;;;;;22.87;9.83;;;2.40;99.90;;;;;;5074420;28;20555;-80
2020/12/04 04:20:52;;;;;;;22.60;10.40;;;2.30;99.90;;;;;;5072285;28;20198;-81
2020/12/04 04:23:18;;;;;;;23.70;10.53;;;2.30;99.90;;;;;;5089336;28;20265;-83
2020/12/04 04:25:44;;;;;;;22.33;9.30;;;2.30;99.90;;;;;;5091067;28;20269;-81
2020/12/04 04:28:12;;;;;;;23.33;10.17;;;2.30;99.90;;;;;;5076460;28;20174;-80
2020/12/04 04:30:38;;;;;;;23.10;9.83;;;2.30;99.90;;;;;;5091655;28;20202;-82
2020/12/04 04:33:04;;;;;;;24.43;10.10;;;2.30;99.90;;;;;;5092192;28;20171;-80
2020/12/04 04:35:29;;;;;;;22.63;9.97;;;2.30;99.90;;;;;;5076594;28;20239;-81
2020/12/04 04:37:55;;;;;;;22.27;10.47;;;2.30;99.90;;;;;;5092038;28;20183;-79
2020/12/04 04:40:22;;;;;;;25.93;11.23;;;2.20;99.90;;;;;;5076466;28;20170;-79
2020/12/04 04:42:48;;;;;;;23.07;10.63;;;2.20;99.90;;;;;;5092083;28;20186;-81
2020/12/04 04:45:15;;;;;;;22.40;10.77;;;2.20;99.90;;;;;;5092026;28;20355;-80
2020/12/04 04:47:44;;;;;;;28.83;11.40;;;2.20;99.90;;;;;;5091960;28;20194;-80
2020/12/04 04:50:09;;;;;;;25.67;12.03;;;2.20;99.90;;;;;;5091758;28;20297;-80
2020/12/04 04:52:36;;;;;;;25.70;11.37;;;2.20;99.90;;;;;;5091752;28;20285;-81
2020/12/04 04:55:01;;;;;;;24.47;11.07;;;2.10;99.90;;;;;;5091919;28;20211;-81
2020/12/04 04:57:27;;;;;;;26.90;11.97;;;2.20;99.90;;;;;;5074872;28;20178;-79
2020/12/04 04:59:54;;;;;;;29.20;13.57;;;2.20;99.90;;;;;;5092070;28;20194;-79
2020/12/04 05:02:19;;;;;;;24.97;11.37;;;2.20;99.90;;;;;;5091978;28;20227;-80
2020/12/04 05:04:52;;;;;;;25.27;11.07;;;2.20;99.90;;;;;;5076427;28;20179;-80
2020/12/04 05:07:34;;;;;;;27.27;13.33;;;2.20;99.90;;;;;;5074817;28;20611;-80
2020/12/04 05:10:16;;;;;;;26.37;11.97;;;2.20;99.90;;;;;;5074883;28;20210;-81
2020/12/04 05:12:43;;;;;;;25.70;12.07;;;2.20;99.90;;;;;;5091630;28;20227;-80
2020/12/04 05:15:25;;;;;;;26.47;11.70;;;2.20;99.90;;;;;;5057305;28;20206;-79
2020/12/04 05:18:09;;;;;;;25.73;10.73;;;2.10;99.90;;;;;;5056269;28;20187;-80
2020/12/04 05:20:40;;;;;;;26.60;12.57;;;2.10;99.90;;;;;;5086479;28;20186;-79
2020/12/04 05:23:12;;;;;;;25.43;11.97;;;2.10;99.90;;;;;;5068731;28;20194;-79
2020/12/04 05:25:45;;;;;;;29.17;12.00;;;2.20;99.90;;;;;;5054809;28;20640;-79
2020/12/04 05:28:27;;;;;;;28.90;13.63;;;2.10;99.90;;;;;;5088455;28;20191;-80
2020/12/04 05:31:07;;;;;;;26.80;11.23;;;2.20;99.90;;;;;;5091351;28;20206;-79
2020/12/04 05:33:33;;;;;;;27.17;12.03;;;2.20;99.90;;;;;;5073136;28;20656;-79
2020/12/04 05:35:58;;;;;;;33.83;14.30;;;2.20;99.90;;;;;;5080283;28;20219;-79
2020/12/04 05:38:25;;;;;;;29.77;13.47;;;2.20;99.90;;;;;;5069179;28;20281;-80
2020/12/04 05:41:02;;;;;;;30.83;13.00;;;2.10;99.90;;;;;;5075309;28;20727;-80
2020/12/04 05:43:30;;;;;;;28.10;12.60;;;2.20;99.90;;;;;;5090033;28;20582;-80
2020/12/04 05:46:17;;;;;;;29.77;13.87;;;2.10;99.90;;;;;;5068379;28;20590;-82
2020/12/04 05:48:43;;;;;;;30.13;11.87;;;2.20;99.90;;;;;;5055844;28;20211;-79
2020/12/04 05:51:10;;;;;;;33.13;14.73;;;2.20;99.90;;;;;;5055251;28;20218;-80
2020/12/04 05:53:36;;;;;;;31.87;13.10;;;2.20;99.90;;;;;;5077234;28;20276;-80
2020/12/04 05:56:01;;;;;;;29.60;13.10;;;2.10;99.90;;;;;;5090062;28;20215;-80
2020/12/04 05:58:31;;;;;;;27.97;12.60;;;2.10;99.90;;;;;;5089232;28;20174;-79
2020/12/04 06:00:59;;;;;;;28.40;11.87;;;2.20;99.90;;;;;;5089377;28;20209;-79
2020/12/04 06:03:25;;;;;;;28.27;12.03;;;2.10;99.90;;;;;;5074044;28;20179;-80
2020/12/04 06:05:50;;;;;;;30.33;13.67;;;2.10;99.90;;;;;;5074049;28;20194;-80
2020/12/04 06:08:16;;;;;;;28.93;13.43;;;2.00;99.90;;;;;;5074017;28;20218;-79
2020/12/04 06:10:42;;;;;;;29.53;13.53;;;2.00;99.90;;;;;;5074122;28;20206;-79
2020/12/04 06:13:07;;;;;;;30.73;13.53;;;2.00;99.90;;;;;;5073910;28;20230;-80
2020/12/04 06:15:33;;;;;;;31.47;12.77;;;2.00;99.90;;;;;;5073716;28;20217;-80
2020/12/04 06:18:04;;;;;;;30.63;12.43;;;2.00;99.90;;;;;;5087709;28;20187;-79
2020/12/04 06:20:46;;;;;;;29.87;13.10;;;2.00;99.90;;;;;;5074975;28;20236;-80
2020/12/04 06:23:16;;;;;;;30.07;13.80;;;2.00;99.90;;;;;;5070439;28;20365;-79
2020/12/04 06:25:59;;;;;;;28.30;13.10;;;1.90;99.90;;;;;;5080323;28;20273;-80
2020/12/04 06:28:35;;;;;;;26.97;11.60;;;1.90;99.90;;;;;;5090044;28;20543;-80
2020/12/04 06:31:04;;;;;;;29.10;13.33;;;1.90;99.90;;;;;;5057489;28;20633;-79
2020/12/04 06:33:31;;;;;;;27.43;12.80;;;1.90;99.90;;;;;;5069895;28;20522;-79
2020/12/04 06:35:56;;;;;;;26.90;12.53;;;1.90;99.90;;;;;;5071210;28;20648;-79
2020/12/04 06:38:40;;;;;;;28.33;12.77;;;1.90;99.90;;;;;;5088903;28;20281;-79
2020/12/04 06:41:19;;;;;;;31.97;13.93;;;1.90;99.90;;;;;;5069150;28;20199;-80
2020/12/04 06:43:46;;;;;;;28.40;12.23;;;1.90;99.90;;;;;;5074192;28;20576;-80
2020/12/04 06:46:29;;;;;;;32.27;12.53;;;1.90;99.90;;;;;;5070729;28;20638;-79
2020/12/04 06:49:22;;;;;;;28.70;12.93;;;1.80;99.90;;;;;;5063528;28;20187;-80
2020/12/04 06:51:58;;;;;;;28.53;13.20;;;1.90;99.90;;;;;;5073337;28;20587;-80
2020/12/04 06:54:25;;;;;;;28.30;12.13;;;1.90;99.90;;;;;;5071195;28;20171;-80
2020/12/04 06:56:51;;;;;;;28.73;13.20;;;1.90;99.90;;;;;;5072276;28;20646;-79
2020/12/04 06:59:42;;;;;;;28.67;12.70;;;1.90;99.90;;;;;;5059568;28;20188;-79
2020/12/04 07:02:10;;;;;;;24.43;11.37;;;2.00;99.90;;;;;;5051810;28;20298;-80
2020/12/04 07:04:38;;;;;;;29.67;12.93;;;1.90;99.90;;;;;;5063861;28;20179;-80
2020/12/04 07:07:06;;;;;;;30.47;11.97;;;2.00;99.90;;;;;;5082239;28;20193;-80
2020/12/04 07:09:32;;;;;;;29.80;13.30;;;2.00;99.90;;;;;;5071525;28;20207;-79
2020/12/04 07:11:59;;;;;;;26.00;12.10;;;2.00;99.90;;;;;;5072669;28;20195;-80
2020/12/04 07:14:26;;;;;;;26.97;12.07;;;2.00;99.90;;;;;;5066279;28;20187;-79
2020/12/04 07:16:52;;;;;;;30.07;12.97;;;2.00;99.90;;;;;;5065670;28;20187;-81
2020/12/04 07:19:18;;;;;;;32.63;12.93;;;2.00;99.90;;;;;;5071468;28;20210;-83
2020/12/04 07:21:43;;;;;;;28.90;13.80;;;2.00;99.90;;;;;;5071400;28;20233;-81
2020/12/04 07:24:09;;;;;;;29.53;12.77;;;2.00;99.90;;;;;;5072678;28;20670;-78
2020/12/04 07:26:35;;;;;;;29.87;13.43;;;2.00;99.90;;;;;;5073611;28;20174;-79
2020/12/04 07:29:00;;;;;;;32.73;14.03;;;2.00;99.90;;;;;;5073792;28;20178;-80
2020/12/04 07:31:26;;;;;;;30.97;13.17;;;2.00;99.90;;;;;;5072423;28;20554;-80
2020/12/04 07:33:57;;;;;;;31.47;13.20;;;2.00;99.90;;;;;;5072493;28;20178;-80
2020/12/04 07:36:24;;;;;;;29.33;13.23;;;1.90;99.90;;;;;;5073487;28;20382;-80
2020/12/04 07:39:01;;;;;;;31.63;12.87;;;2.00;99.90;;;;;;5072368;28;20174;-81
2020/12/04 07:41:39;;;;;;;26.93;11.90;;;2.00;99.90;;;;;;5072314;28;20664;-79
2020/12/04 07:44:07;;;;;;;27.07;12.27;;;2.10;99.90;;;;;;5073569;28;20158;-82
2020/12/04 07:46:34;;;;;;;34.57;14.43;;;2.10;99.90;;;;;;5071669;28;20201;-80
2020/12/04 07:49:10;;;;;;;27.90;11.93;;;2.10;99.90;;;;;;5072414;28;20175;-80
2020/12/04 07:51:37;;;;;;;26.23;12.53;;;2.10;99.90;;;;;;5072469;28;20193;-81
2020/12/04 07:54:05;;;;;;;30.70;13.17;;;2.10;99.90;;;;;;5071928;28;20213;-80
2020/12/04 07:56:33;;;;;;;27.53;13.53;;;2.10;99.90;;;;;;5072266;28;20649;-82
2020/12/04 07:59:06;;;;;;;26.97;12.40;;;2.20;99.90;;;;;;5073413;28;20198;-80
2020/12/04 08:01:40;;;;;;;30.17;13.67;;;2.20;99.90;;;;;;5071386;28;20221;-80
2020/12/04 08:04:07;;;;;;;33.83;14.13;;;2.20;99.90;;;;;;5072169;28;20171;-80
2020/12/04 08:06:32;;;;;;;30.03;14.40;;;2.20;99.90;;;;;;5071773;28;20175;-81
2020/12/04 08:09:09;;;;;;;29.83;12.97;;;2.20;99.90;;;;;;5071601;28;20675;-80
2020/12/04 08:11:38;;;;;;;31.73;14.07;;;2.20;99.90;;;;;;5072103;28;20218;-79
2020/12/04 08:14:04;;;;;;;30.10;13.80;;;2.20;99.90;;;;;;5071761;28;20225;-80
2020/12/04 08:16:31;;;;;;;33.67;14.90;;;2.20;99.90;;;;;;5071635;28;20217;-79
2020/12/04 08:19:09;;;;;;;31.43;14.17;;;2.20;99.90;;;;;;5073140;28;20171;-79
2020/12/04 08:21:35;;;;;;;28.87;13.33;;;2.20;99.90;;;;;;5071804;28;20217;-80
2020/12/04 08:24:01;;;;;;;32.93;14.63;;;2.20;99.90;;;;;;5071619;28;20640;-80
2020/12/04 08:26:26;;;;;;;28.73;13.47;;;2.20;99.90;;;;;;5071425;28;20550;-81
2020/12/04 08:28:53;;;;;;;32.00;15.30;;;2.20;99.90;;;;;;5071324;28;20197;-81
2020/12/04 08:31:26;;;;;;;29.03;13.23;;;2.20;99.90;;;;;;5071759;28;20225;-79
2020/12/04 08:33:52;;;;;;;33.27;14.73;;;2.20;99.90;;;;;;5071468;28;20175;-80
2020/12/04 08:36:18;;;;;;;34.93;14.60;;;2.20;99.90;;;;;;5071298;28;20186;-79
2020/12/04 08:38:52;;;;;;;29.60;13.50;;;2.20;99.90;;;;;;5072487;28;20774;-80
2020/12/04 08:41:19;;;;;;;32.97;13.70;;;2.20;99.90;;;;;;5072482;28;20236;-79
2020/12/04 08:43:45;;;;;;;30.03;15.23;;;2.10;99.90;;;;;;5071341;28;20205;-80
2020/12/04 08:46:11;;;;;;;26.67;12.83;;;2.10;99.90;;;;;;5072710;28;20639;-78
2020/12/04 08:48:39;;;;;;;28.20;12.97;;;2.20;99.90;;;;;;5071512;28;20179;-81
2020/12/04 08:51:07;;;;;;;32.87;14.70;;;2.20;99.90;;;;;;5071130;28;20214;-79
2020/12/04 08:53:34;;;;;;;32.70;15.23;;;2.20;99.90;;;;;;5071350;28;20214;-80
2020/12/04 08:56:01;;;;;;;36.20;14.80;;;2.20;99.90;;;;;;5071258;28;20175;-80
2020/12/04 08:58:28;;;;;;;28.23;13.73;;;2.20;99.90;;;;;;5071230;28;20515;-80
2020/12/04 09:00:55;;;;;;;30.03;13.47;;;2.10;99.90;;;;;;5071364;28;20199;-79
2020/12/04 09:03:22;;;;;;;31.87;14.47;;;2.20;99.90;;;;;;5071274;28;20640;-80
2020/12/04 09:05:48;;;;;;;34.60;15.90;;;2.20;99.90;;;;;;5071627;28;20550;-79
2020/12/04 09:08:14;;;;;;;30.13;14.10;;;2.10;99.90;;;;;;5071095;28;20206;-80
2020/12/04 09:10:39;;;;;;;36.47;14.30;;;2.00;99.90;;;;;;5071169;28;20195;-81
2020/12/04 09:13:07;;;;;;;33.00;14.80;;;2.00;99.90;;;;;;5069646;28;20613;-80
2020/12/04 09:15:33;;;;;;;31.07;14.13;;;2.10;99.90;;;;;;5056286;28;20259;-80
2020/12/04 09:17:59;;;;;;;31.70;14.40;;;2.00;99.90;;;;;;5071469;28;20211;-80
2020/12/04 09:20:25;;;;;;;36.37;16.37;;;2.10;99.90;;;;;;5056057;28;20180;-80
2020/12/04 09:22:52;;;;;;;37.33;16.10;;;2.00;99.90;;;;;;5054907;28;20198;-79
2020/12/04 09:25:19;;;;;;;32.80;14.30;;;2.00;99.90;;;;;;5071510;28;20186;-81
2020/12/04 09:27:45;;;;;;;32.40;15.47;;;2.10;99.90;;;;;;5071038;28;20262;-81
2020/12/04 09:30:12;;;;;;;35.63;15.50;;;2.20;99.90;;;;;;5071304;28;20284;-80
2020/12/04 09:32:38;;;;;;;37.23;15.37;;;2.20;99.90;;;;;;5071178;28;20609;-80
2020/12/04 09:35:05;;;;;;;33.57;15.00;;;2.20;99.90;;;;;;5055738;28;20172;-81
2020/12/04 09:37:33;;;;;;;30.03;13.90;;;2.30;99.90;;;;;;5055692;28;20175;-79
2020/12/04 09:40:02;;;;;;;33.03;15.07;;;2.30;99.90;;;;;;5071120;28;20179;-80
2020/12/04 09:42:28;;;;;;;34.87;16.07;;;2.30;99.90;;;;;;5071557;28;20204;-82
2020/12/04 09:44:55;;;;;;;32.30;14.80;;;2.40;99.90;;;;;;5070911;28;20232;-81
2020/12/04 09:47:22;;;;;;;34.37;16.13;;;2.30;99.90;;;;;;5070519;28;20816;-80
2020/12/04 09:49:49;;;;;;;32.00;14.27;;;2.30;99.90;;;;;;5055745;28;20195;-81
2020/12/04 09:52:15;;;;;;;31.47;14.77;;;2.30;99.90;;;;;;5071137;28;20191;-81
2020/12/04 09:54:44;;;;;;;34.90;14.60;;;2.30;99.90;;;;;;5070633;28;20203;-78
2020/12/04 09:57:11;;;;;;;31.50;14.83;;;2.30;99.90;;;;;;5054099;28;20523;-78
2020/12/04 09:59:37;;;;;;;31.93;14.80;;;2.30;99.90;;;;;;5053896;28;20550;-81
2020/12/04 10:02:04;;;;;;;34.23;14.50;;;2.30;99.90;;;;;;5071164;28;20206;-82
2020/12/04 10:04:31;;;;;;;28.37;13.13;;;2.20;99.90;;;;;;5070526;28;20175;-81
2020/12/04 10:06:57;;;;;;;33.40;13.60;;;2.20;99.90;;;;;;5054979;28;20174;-80
2020/12/04 10:09:24;;;;;;;33.30;15.30;;;2.30;99.90;;;;;;5053791;28;20234;-79
2020/12/04 10:11:50;;;;;;;33.50;15.53;;;2.30;99.90;;;;;;5070651;28;20194;-80
2020/12/04 10:14:16;;;;;;;30.80;13.80;;;2.30;99.90;;;;;;5053650;28;20211;-80
2020/12/04 10:16:43;;;;;;;33.53;14.53;;;2.40;99.90;;;;;;5055327;28;20198;-79
2020/12/04 10:19:13;;;;;;;31.70;13.87;;;2.40;99.90;;;;;;5070437;28;20194;-80
2020/12/04 10:21:39;;;;;;;29.03;12.43;;;2.40;99.90;;;;;;5070171;28;20675;-81
2020/12/04 10:24:06;;;;;;;31.90;13.10;;;2.40;99.90;;;;;;5069771;28;20172;-80
2020/12/04 10:26:37;;;;;;;27.27;13.10;;;2.40;99.90;;;;;;5070109;28;20179;-78
2020/12/04 10:29:02;;;;;;;31.17;13.17;;;2.50;99.90;;;;;;5053366;28;20174;-81
2020/12/04 10:31:28;;;;;;;32.87;14.27;;;2.40;99.90;;;;;;5070024;28;20188;-80
2020/12/04 10:33:53;;;;;;;33.00;14.33;;;2.50;99.90;;;;;;5070107;28;20175;-81
2020/12/04 10:36:19;;;;;;;31.10;14.53;;;2.40;99.90;;;;;;5069904;28;20205;-79
2020/12/04 10:38:45;;;;;;;32.90;14.17;;;2.50;99.90;;;;;;5070162;28;20179;-82
2020/12/04 10:41:10;;;;;;;31.80;14.97;;;2.50;99.90;;;;;;5070078;28;20199;-82
2020/12/04 10:43:36;;;;;;;31.47;14.20;;;2.50;99.90;;;;;;5069943;28;20183;-82
2020/12/04 10:46:01;;;;;;;30.10;12.63;;;2.50;99.90;;;;;;5069368;28;20171;-80
2020/12/04 10:48:27;;;;;;;29.47;14.00;;;2.40;99.90;;;;;;5070102;28;20176;-79
2020/12/04 10:50:52;;;;;;;29.07;13.10;;;2.40;99.90;;;;;;5054082;28;20207;-81
2020/12/04 10:53:19;;;;;;;25.93;12.93;;;2.50;99.90;;;;;;5054598;28;20168;-82
2020/12/04 10:55:45;;;;;;;30.83;14.17;;;2.60;99.90;;;;;;5052854;28;20182;-79
2020/12/04 10:58:11;;;;;;;32.17;14.17;;;2.60;99.90;;;;;;5069355;28;20171;-81
2020/12/04 11:00:37;;;;;;;28.97;12.93;;;2.60;99.90;;;;;;5069431;28;20179;-80
2020/12/04 11:03:12;;;;;;;29.33;12.83;;;2.50;99.90;;;;;;5054235;28;20220;-79
2020/12/04 11:05:43;;;;;;;33.27;13.60;;;2.50;99.90;;;;;;5069562;28;20228;-80
2020/12/04 11:08:08;;;;;;;32.43;13.50;;;2.50;99.90;;;;;;5069294;28;20180;-80
2020/12/04 11:10:35;;;;;;;28.83;12.87;;;2.60;99.90;;;;;;5053801;28;20184;-80
2020/12/04 11:13:01;;;;;;;28.03;13.87;;;2.60;99.90;;;;;;5069253;28;20199;-78
2020/12/04 11:15:27;;;;;;;26.77;12.27;;;2.60;99.90;;;;;;5069268;28;20177;-80
2020/12/04 11:17:53;;;;;;;29.20;13.47;;;2.60;99.90;;;;;;5069057;28;20175;-80
2020/12/04 11:20:23;;;;;;;32.80;14.10;;;2.60;99.90;;;;;;5053797;28;20171;-78
2020/12/04 11:22:49;;;;;;;31.47;13.67;;;2.60;99.90;;;;;;5069100;28;20588;-81
2020/12/04 11:25:15;;;;;;;33.40;13.97;;;2.60;99.90;;;;;;5068981;28;20637;-81
2020/12/04 11:27:45;;;;;;;31.23;14.10;;;2.50;99.90;;;;;;5068715;28;20181;-80
2020/12/04 11:30:13;;;;;;;35.63;15.20;;;2.60;99.90;;;;;;5053645;28;20278;-80
2020/12/04 11:32:43;;;;;;;31.23;13.67;;;2.50;99.90;;;;;;5068911;28;20282;-80
2020/12/04 11:35:10;;;;;;;33.03;14.50;;;2.50;99.90;;;;;;5068047;28;20180;-79
2020/12/04 11:37:39;;;;;;;31.50;13.37;;;2.60;99.90;;;;;;5068739;28;20187;-78
2020/12/04 11:40:07;;;;;;;31.73;13.20;;;2.50;99.90;;;;;;5053193;28;20214;-80
2020/12/04 11:42:33;;;;;;;30.67;13.20;;;2.70;99.90;;;;;;5068775;28;20317;-81
2020/12/04 11:44:59;;;;;;;28.77;13.53;;;2.60;99.90;;;;;;5053510;28;20657;-79
2020/12/04 11:47:27;;;;;;;30.13;13.33;;;2.70;99.90;;;;;;5051871;28;20191;-80
2020/12/04 11:49:54;;;;;;;33.00;13.43;;;2.60;99.90;;;;;;5068508;28;20207;-79
2020/12/04 11:52:19;;;;;;;29.17;12.97;;;2.60;99.90;;;;;;5053193;28;20215;-80
2020/12/04 11:54:46;;;;;;;27.83;12.93;;;2.60;99.90;;;;;;5068569;28;20539;-79
2020/12/04 11:57:11;;;;;;;28.73;13.27;;;2.60;99.90;;;;;;5068564;28;20207;-79
2020/12/04 11:59:37;;;;;;;29.50;13.33;;;2.60;99.90;;;;;;5068713;28;20171;-80
2020/12/04 12:02:03;;;;;;;30.67;13.70;;;2.70;99.90;;;;;;5068492;28;20555;-79
2020/12/04 12:04:29;;;;;;;30.03;12.93;;;2.70;99.90;;;;;;5053232;28;20290;-81
2020/12/04 12:06:55;;;;;;;28.07;12.73;;;2.70;99.90;;;;;;5051676;28;20176;-81
2020/12/04 12:09:20;;;;;;;30.87;15.30;;;2.70;99.90;;;;;;5068420;28;20681;-81
2020/12/04 12:11:46;;;;;;;33.50;14.23;;;2.70;99.90;;;;;;5075191;28;20195;-81
2020/12/04 12:14:11;;;;;;;30.87;14.20;;;2.70;99.90;;;;;;5071872;28;20680;-81
2020/12/04 12:16:37;;;;;;;34.97;14.37;;;2.70;99.90;;;;;;5073011;28;20178;-80
2020/12/04 12:19:02;;;;;;;27.07;12.43;;;2.70;99.90;;;;;;5072109;28;20179;-78
2020/12/04 12:21:29;;;;;;;25.70;12.57;;;2.70;99.90;;;;;;5071637;28;20202;-81
2020/12/04 12:23:54;;;;;;;31.93;14.17;;;2.70;99.90;;;;;;5071564;28;20877;-81
2020/12/04 12:26:20;;;;;;;29.60;12.77;;;2.80;99.90;;;;;;5088338;28;20175;-81
2020/12/04 12:28:46;;;;;;;31.80;14.13;;;2.80;99.90;;;;;;5071474;28;20175;-79
2020/12/04 12:31:12;;;;;;;27.87;13.13;;;2.80;99.90;;;;;;5088592;28;20710;-80
2020/12/04 12:33:37;;;;;;;31.07;13.60;;;2.80;99.90;;;;;;5071647;28;20167;-79
2020/12/04 12:36:03;;;;;;;34.03;13.70;;;2.80;99.90;;;;;;5088440;28;20181;-81
2020/12/04 12:38:28;;;;;;;34.77;14.13;;;2.80;99.90;;;;;;5072807;28;20171;-81